N56WC KMTH-KEYW
Flight info
| Callsign | N56WC |
|---|---|
| Flight time | 0h 34m |
| Altitude | 4500 |
| Route | GUCEL |
| Aircraft | SREY/L-SDFG/C |
Departure
| Time | 2026-05-08 11:00 |
|---|---|
| Airport | Florida Keys Marathon International Airport (KMTH) |
Arrival
| Time | 2026-05-08 11:35 |
|---|---|
| Airport | Key West International Airport (KEYW) |
| Time | Latitude | Longitude | Altitude | Speed | Heading |
|---|---|---|---|---|---|
| 2026-05-08 10:45 | 24.72549 | -81.05083 | 10 ft | 0 kts | 145° |
| 2026-05-08 10:51 | 24.72549 | -81.05082 | 10 ft | 0 kts | 145° |
| 2026-05-08 10:51 | 24.72548 | -81.05082 | 10 ft | 0 kts | 145° |
| 2026-05-08 10:55 | 24.72551 | -81.05075 | 10 ft | 6 kts | 2° |
| 2026-05-08 10:55 | 24.72601 | -81.05042 | 10 ft | 12 kts | 58° |
| 2026-05-08 10:55 | 24.72639 | -81.04938 | 10 ft | 18 kts | 72° |
| 2026-05-08 10:56 | 24.72684 | -81.04815 | 10 ft | 15 kts | 64° |
| 2026-05-08 10:56 | 24.72725 | -81.04721 | 10 ft | 12 kts | 70° |
| 2026-05-08 10:56 | 24.72754 | -81.04646 | 10 ft | 10 kts | 69° |
| 2026-05-08 10:56 | 24.72778 | -81.04575 | 10 ft | 11 kts | 74° |
| 2026-05-08 10:57 | 24.72816 | -81.04483 | 10 ft | 14 kts | 68° |
| 2026-05-08 10:57 | 24.72846 | -81.04447 | 10 ft | 0 kts | 0° |
| 2026-05-08 10:57 | 24.72859 | -81.04447 | 10 ft | 6 kts | 2° |
| 2026-05-08 10:58 | 24.72864 | -81.04499 | 10 ft | 12 kts | 238° |
| 2026-05-08 10:58 | 24.72850 | -81.04522 | 10 ft | 0 kts | 240° |
| 2026-05-08 11:00 | 24.72817 | -81.04620 | 11 ft | 40 kts | 248° |
| 2026-05-08 11:00 | 24.72625 | -81.05103 | 216 ft | 70 kts | 247° |
| 2026-05-08 11:00 | 24.72437 | -81.05576 | 666 ft | 57 kts | 245° |
| 2026-05-08 11:01 | 24.72250 | -81.06027 | 997 ft | 73 kts | 247° |
| 2026-05-08 11:01 | 24.72019 | -81.06585 | 1238 ft | 86 kts | 247° |
| 2026-05-08 11:01 | 24.71767 | -81.07196 | 1416 ft | 85 kts | 248° |
| 2026-05-08 11:01 | 24.71525 | -81.07778 | 1562 ft | 85 kts | 248° |
| 2026-05-08 11:02 | 24.71279 | -81.08362 | 1710 ft | 84 kts | 248° |
| 2026-05-08 11:02 | 24.70813 | -81.09534 | 2005 ft | 83 kts | 248° |
| 2026-05-08 11:02 | 24.70577 | -81.10118 | 2153 ft | 83 kts | 247° |
| 2026-05-08 11:03 | 24.70341 | -81.10690 | 2301 ft | 82 kts | 246° |
| 2026-05-08 11:03 | 24.70101 | -81.11263 | 2452 ft | 81 kts | 245° |
| 2026-05-08 11:03 | 24.69866 | -81.11820 | 2599 ft | 80 kts | 244° |
| 2026-05-08 11:03 | 24.69632 | -81.12363 | 2744 ft | 79 kts | 243° |
| 2026-05-08 11:04 | 24.69397 | -81.12907 | 2892 ft | 78 kts | 244° |
| 2026-05-08 11:04 | 24.69166 | -81.13447 | 3038 ft | 78 kts | 244° |
| 2026-05-08 11:04 | 24.68937 | -81.13983 | 3186 ft | 77 kts | 243° |
| 2026-05-08 11:04 | 24.68710 | -81.14513 | 3333 ft | 76 kts | 243° |
| 2026-05-08 11:05 | 24.68489 | -81.15032 | 3478 ft | 75 kts | 244° |
| 2026-05-08 11:05 | 24.68272 | -81.15542 | 3622 ft | 73 kts | 244° |
| 2026-05-08 11:05 | 24.68057 | -81.16047 | 3767 ft | 72 kts | 244° |
| 2026-05-08 11:05 | 24.67849 | -81.16539 | 3911 ft | 71 kts | 244° |
| 2026-05-08 11:06 | 24.67643 | -81.17024 | 4055 ft | 69 kts | 244° |
| 2026-05-08 11:06 | 24.67441 | -81.17498 | 4198 ft | 67 kts | 244° |
| 2026-05-08 11:06 | 24.67239 | -81.17972 | 4349 ft | 70 kts | 245° |
| 2026-05-08 11:06 | 24.67026 | -81.18474 | 4495 ft | 76 kts | 245° |
| 2026-05-08 11:07 | 24.66792 | -81.19036 | 4550 ft | 86 kts | 246° |
| 2026-05-08 11:07 | 24.66536 | -81.19662 | 4539 ft | 92 kts | 246° |
| 2026-05-08 11:07 | 24.66275 | -81.20300 | 4523 ft | 93 kts | 245° |
| 2026-05-08 11:07 | 24.66001 | -81.20948 | 4518 ft | 93 kts | 244° |
| 2026-05-08 11:08 | 24.65724 | -81.21585 | 4518 ft | 93 kts | 244° |
| 2026-05-08 11:08 | 24.65447 | -81.22225 | 4529 ft | 92 kts | 244° |
| 2026-05-08 11:08 | 24.65177 | -81.22857 | 4539 ft | 92 kts | 244° |
| 2026-05-08 11:08 | 24.64905 | -81.23498 | 4541 ft | 92 kts | 244° |
| 2026-05-08 11:09 | 24.64709 | -81.24175 | 4537 ft | 93 kts | 260° |
| 2026-05-08 11:09 | 24.64600 | -81.24875 | 4539 ft | 93 kts | 259° |
| 2026-05-08 11:09 | 24.64483 | -81.25568 | 4539 ft | 93 kts | 258° |
| 2026-05-08 11:09 | 24.64362 | -81.26261 | 4540 ft | 93 kts | 258° |
| 2026-05-08 11:10 | 24.64239 | -81.26960 | 4539 ft | 93 kts | 258° |
| 2026-05-08 11:10 | 24.64116 | -81.27658 | 4539 ft | 93 kts | 258° |
| 2026-05-08 11:10 | 24.63995 | -81.28352 | 4539 ft | 93 kts | 258° |
| 2026-05-08 11:10 | 24.63872 | -81.29051 | 4539 ft | 93 kts | 258° |
| 2026-05-08 11:11 | 24.63750 | -81.29751 | 4539 ft | 93 kts | 258° |
| 2026-05-08 11:11 | 24.63632 | -81.30454 | 4539 ft | 93 kts | 259° |
| 2026-05-08 11:11 | 24.63512 | -81.31157 | 4539 ft | 93 kts | 258° |
| 2026-05-08 11:11 | 24.63390 | -81.31847 | 4539 ft | 93 kts | 258° |
| 2026-05-08 11:12 | 24.63266 | -81.32549 | 4540 ft | 93 kts | 258° |
| 2026-05-08 11:12 | 24.63141 | -81.33256 | 4538 ft | 94 kts | 258° |
| 2026-05-08 11:12 | 24.63017 | -81.33955 | 4539 ft | 94 kts | 258° |
| 2026-05-08 11:12 | 24.62893 | -81.34659 | 4539 ft | 94 kts | 258° |
| 2026-05-08 11:13 | 24.62770 | -81.35360 | 4539 ft | 94 kts | 258° |
| 2026-05-08 11:13 | 24.62648 | -81.36059 | 4539 ft | 94 kts | 258° |
| 2026-05-08 11:13 | 24.62523 | -81.36768 | 4539 ft | 94 kts | 258° |
| 2026-05-08 11:13 | 24.62400 | -81.37473 | 4539 ft | 94 kts | 258° |
| 2026-05-08 11:14 | 24.62279 | -81.38166 | 4540 ft | 94 kts | 258° |
| 2026-05-08 11:14 | 24.62156 | -81.38870 | 4539 ft | 94 kts | 258° |
| 2026-05-08 11:14 | 24.62032 | -81.39574 | 4539 ft | 94 kts | 258° |
| 2026-05-08 11:14 | 24.61910 | -81.40273 | 4539 ft | 94 kts | 258° |
| 2026-05-08 11:15 | 24.61786 | -81.40977 | 4539 ft | 94 kts | 258° |
| 2026-05-08 11:15 | 24.61663 | -81.41681 | 4539 ft | 94 kts | 258° |
| 2026-05-08 11:15 | 24.61540 | -81.42379 | 4540 ft | 94 kts | 258° |
| 2026-05-08 11:15 | 24.61417 | -81.43083 | 4539 ft | 94 kts | 258° |
| 2026-05-08 11:16 | 24.61293 | -81.43788 | 4539 ft | 94 kts | 258° |
| 2026-05-08 11:16 | 24.61169 | -81.44493 | 4540 ft | 94 kts | 258° |
| 2026-05-08 11:16 | 24.61047 | -81.45192 | 4539 ft | 94 kts | 258° |
| 2026-05-08 11:16 | 24.60924 | -81.45891 | 4539 ft | 94 kts | 258° |
| 2026-05-08 11:17 | 24.60800 | -81.46595 | 4539 ft | 94 kts | 258° |
| 2026-05-08 11:17 | 24.60676 | -81.47301 | 4539 ft | 94 kts | 258° |
| 2026-05-08 11:17 | 24.60554 | -81.47999 | 4539 ft | 94 kts | 258° |
| 2026-05-08 11:17 | 24.60430 | -81.48704 | 4539 ft | 94 kts | 258° |
| 2026-05-08 11:18 | 24.60305 | -81.49410 | 4539 ft | 94 kts | 258° |
| 2026-05-08 11:18 | 24.60182 | -81.50113 | 4539 ft | 94 kts | 258° |
| 2026-05-08 11:18 | 24.60058 | -81.50819 | 4539 ft | 94 kts | 258° |
| 2026-05-08 11:18 | 24.59936 | -81.51511 | 4539 ft | 94 kts | 258° |
| 2026-05-08 11:19 | 24.59810 | -81.52224 | 4539 ft | 94 kts | 258° |
| 2026-05-08 11:19 | 24.59686 | -81.52928 | 4540 ft | 94 kts | 258° |
| 2026-05-08 11:19 | 24.59564 | -81.53621 | 4539 ft | 94 kts | 258° |
| 2026-05-08 11:19 | 24.59439 | -81.54329 | 4521 ft | 95 kts | 258° |
| 2026-05-08 11:20 | 24.59307 | -81.55077 | 4397 ft | 101 kts | 257° |
| 2026-05-08 11:20 | 24.59198 | -81.55838 | 4250 ft | 104 kts | 268° |
| 2026-05-08 11:20 | 24.59524 | -81.56534 | 4102 ft | 105 kts | 310° |
| 2026-05-08 11:20 | 24.60015 | -81.57136 | 3959 ft | 106 kts | 311° |
| 2026-05-08 11:21 | 24.60504 | -81.57731 | 3807 ft | 101 kts | 311° |
| 2026-05-08 11:21 | 24.60969 | -81.58294 | 3655 ft | 100 kts | 311° |
| 2026-05-08 11:21 | 24.61403 | -81.58885 | 3497 ft | 99 kts | 296° |
| 2026-05-08 11:21 | 24.61599 | -81.59600 | 3356 ft | 98 kts | 283° |
| 2026-05-08 11:22 | 24.61767 | -81.60330 | 3208 ft | 99 kts | 282° |
| 2026-05-08 11:22 | 24.61884 | -81.60827 | 3139 ft | 100 kts | 282° |
| 2026-05-08 11:22 | 24.62016 | -81.61595 | 3017 ft | 104 kts | 276° |
| 2026-05-08 11:22 | 24.62116 | -81.62647 | 2861 ft | 103 kts | 270° |
| 2026-05-08 11:23 | 24.62120 | -81.63415 | 2793 ft | 96 kts | 268° |
| 2026-05-08 11:23 | 24.62118 | -81.63894 | 2807 ft | 91 kts | 267° |
| 2026-05-08 11:23 | 24.62119 | -81.64580 | 2832 ft | 89 kts | 267° |
| 2026-05-08 11:23 | 24.62121 | -81.65251 | 2841 ft | 89 kts | 267° |
| 2026-05-08 11:24 | 24.62123 | -81.65939 | 2841 ft | 90 kts | 267° |
| 2026-05-08 11:24 | 24.62083 | -81.66625 | 2837 ft | 89 kts | 254° |
| 2026-05-08 11:24 | 24.61912 | -81.67275 | 2840 ft | 89 kts | 249° |
| 2026-05-08 11:24 | 24.61677 | -81.67901 | 2839 ft | 88 kts | 243° |
| 2026-05-08 11:25 | 24.61431 | -81.68529 | 2844 ft | 90 kts | 243° |
| 2026-05-08 11:25 | 24.61171 | -81.69150 | 2833 ft | 89 kts | 242° |
| 2026-05-08 11:25 | 24.60909 | -81.69761 | 2836 ft | 88 kts | 242° |
| 2026-05-08 11:25 | 24.60649 | -81.70362 | 2839 ft | 88 kts | 240° |
| 2026-05-08 11:26 | 24.60356 | -81.70948 | 2840 ft | 88 kts | 237° |
| 2026-05-08 11:26 | 24.60058 | -81.71534 | 2821 ft | 90 kts | 237° |
| 2026-05-08 11:26 | 24.59735 | -81.72159 | 2712 ft | 94 kts | 238° |
| 2026-05-08 11:26 | 24.59447 | -81.72703 | 2624 ft | 74 kts | 234° |
| 2026-05-08 11:27 | 24.59179 | -81.73123 | 2592 ft | 61 kts | 231° |
| 2026-05-08 11:27 | 24.58954 | -81.73486 | 2591 ft | 53 kts | 231° |
| 2026-05-08 11:27 | 24.58768 | -81.73813 | 2593 ft | 48 kts | 238° |
| 2026-05-08 11:27 | 24.58686 | -81.74151 | 2590 ft | 44 kts | 248° |
| 2026-05-08 11:28 | 24.58607 | -81.74497 | 2655 ft | 45 kts | 251° |
| 2026-05-08 11:28 | 24.58516 | -81.74867 | 2764 ft | 56 kts | 249° |
| 2026-05-08 11:28 | 24.58462 | -81.75362 | 2750 ft | 75 kts | 268° |
| 2026-05-08 11:28 | 24.58461 | -81.75978 | 2638 ft | 85 kts | 268° |
| 2026-05-08 11:29 | 24.58427 | -81.76600 | 2543 ft | 77 kts | 263° |
| 2026-05-08 11:29 | 24.58340 | -81.77212 | 2418 ft | 79 kts | 257° |
| 2026-05-08 11:29 | 24.58231 | -81.77734 | 2585 ft | 56 kts | 250° |
| 2026-05-08 11:29 | 24.58099 | -81.78165 | 2696 ft | 55 kts | 248° |
| 2026-05-08 11:30 | 24.57971 | -81.78594 | 2621 ft | 58 kts | 249° |
| 2026-05-08 11:30 | 24.57840 | -81.79026 | 2490 ft | 57 kts | 247° |
| 2026-05-08 11:30 | 24.57761 | -81.79473 | 2352 ft | 58 kts | 265° |
| 2026-05-08 11:30 | 24.57722 | -81.79924 | 2226 ft | 58 kts | 261° |
| 2026-05-08 11:31 | 24.57659 | -81.80373 | 2101 ft | 59 kts | 259° |
| 2026-05-08 11:31 | 24.57605 | -81.80821 | 1979 ft | 59 kts | 262° |
| 2026-05-08 11:31 | 24.57533 | -81.81256 | 1877 ft | 56 kts | 246° |
| 2026-05-08 11:31 | 24.57275 | -81.81579 | 1759 ft | 54 kts | 209° |
| 2026-05-08 11:32 | 24.56921 | -81.81661 | 1532 ft | 51 kts | 176° |
| 2026-05-08 11:32 | 24.56583 | -81.81565 | 1287 ft | 56 kts | 149° |
| 2026-05-08 11:32 | 24.56307 | -81.81274 | 1059 ft | 54 kts | 126° |
| 2026-05-08 11:32 | 24.56095 | -81.80928 | 833 ft | 54 kts | 117° |
| 2026-05-08 11:33 | 24.55914 | -81.80538 | 667 ft | 59 kts | 111° |
| 2026-05-08 11:33 | 24.55778 | -81.80136 | 580 ft | 57 kts | 103° |
| 2026-05-08 11:33 | 24.55693 | -81.79714 | 515 ft | 56 kts | 96° |
| 2026-05-08 11:33 | 24.55630 | -81.79292 | 499 ft | 56 kts | 95° |
| 2026-05-08 11:34 | 24.55580 | -81.78874 | 488 ft | 56 kts | 91° |
| 2026-05-08 11:34 | 24.55578 | -81.78440 | 439 ft | 58 kts | 85° |
| 2026-05-08 11:34 | 24.55591 | -81.78007 | 318 ft | 55 kts | 84° |
| 2026-05-08 11:34 | 24.55602 | -81.77587 | 147 ft | 59 kts | 87° |
| 2026-05-08 11:35 | 24.55592 | -81.77147 | 128 ft | 52 kts | 90° |
| 2026-05-08 11:35 | 24.55605 | -81.76741 | 57 ft | 52 kts | 83° |
| 2026-05-08 11:35 | 24.55608 | -81.76338 | 24 ft | 46 kts | 89° |
| 2026-05-08 11:35 | 24.55615 | -81.76077 | 6 ft | 22 kts | 96° |
| 2026-05-08 11:36 | 24.55610 | -81.75969 | 6 ft | 7 kts | 89° |
| 2026-05-08 11:36 | 24.55612 | -81.75922 | 6 ft | 6 kts | 93° |
| 2026-05-08 11:36 | 24.55613 | -81.75855 | 6 ft | 12 kts | 87° |
| 2026-05-08 11:36 | 24.55612 | -81.75751 | 6 ft | 16 kts | 97° |
| 2026-05-08 11:37 | 24.55617 | -81.75616 | 6 ft | 19 kts | 88° |
| 2026-05-08 11:37 | 24.55574 | -81.75588 | 6 ft | 0 kts | 167° |
| 2026-05-08 11:38 | 24.55556 | -81.75586 | 6 ft | 6 kts | 187° |
| 2026-05-08 11:38 | 24.55531 | -81.75664 | 6 ft | 17 kts | 262° |
| 2026-05-08 11:39 | 24.55530 | -81.75850 | 7 ft | 31 kts | 263° |
| 2026-05-08 11:39 | 24.55495 | -81.75930 | 6 ft | 9 kts | 57° |
| 2026-05-08 11:39 | 24.55497 | -81.75884 | 6 ft | 5 kts | 94° |
| 2026-05-08 11:39 | 24.55496 | -81.75829 | 6 ft | 10 kts | 88° |
| 2026-05-08 11:40 | 24.55487 | -81.75768 | 6 ft | 7 kts | 78° |
| 2026-05-08 11:40 | 24.55487 | -81.75711 | 6 ft | 9 kts | 94° |
| 2026-05-08 11:40 | 24.55488 | -81.75626 | 6 ft | 12 kts | 152° |
| 2026-05-08 11:40 | 24.55420 | -81.75604 | 6 ft | 7 kts | 136° |
| 2026-05-08 11:41 | 24.55408 | -81.75543 | 6 ft | 7 kts | 32° |
| 2026-05-08 11:41 | 24.55426 | -81.75552 | 6 ft | 0 kts | 22° |